Prevelis — SYDL — position and weather

sailwx.info

Track history (hours):
 
Tides and Currents Weather Stations Pressure Air Temp Water Temp Dewpoint Dewpoint Depression Visibility Wind Speed Wind Dir Waves Ship Positions

Prevelis

Last reported at 2015-Jul-28 21:23 UTC. Time now 2015-Jul-28 21:45 UTC.
Position N 35°49' E 027°16'.

Length 143 m; draft 5.5 m.

Type: Passenger vessel. MMSI: 239297000.

Date/timePositionNaut miles runAvg speedWind from/ knotsBaromVisibWave heightAir tempDewpointWater temp
2015-Jul-28 21:23N 35°49' E 027°16'10 0.9
2015-Jul-28 10:33N 35°56' E 027°23'32 9.5
2015-Jul-28 07:10N 35°26' E 027°12'914.2
2015-Jul-28 06:31N 35°27' E 027°01'8 8.5
2015-Jul-28 05:33N 35°31' E 026°52'1818.5
2015-Jul-28 04:33N 35°42' E 026°34'3718.4
2015-Jul-28 02:33N 36°07' E 026°01'1717.2
2015-Jul-28 01:33N 36°20' E 025°46'1212.1
2015-Jul-28 00:33N 36°19' E 025°31'6 6.1
2015-Jul-27 23:32N 36°23' E 025°26'2 1.5
2015-Jul-27 22:33N 36°25' E 025°25'1817.6
2015-Jul-27 21:32N 36°33' E 025°06'1717.3
2015-Jul-27 20:32N 36°45' E 024°50'1918.0
2015-Jul-27 19:28N 36°58' E 024°31'1617.9
2015-Jul-27 18:33N 37°09' E 024°17'2217.8
2015-Jul-27 17:19N 37°27' E 024°00'1418.1
2015-Jul-27 16:33N 37°36' E 023°47'1717.2
2015-Jul-27 15:33N 37°51' E 023°37'6 5.8
2015-Jul-27 14:34N 37°57' E 023°38'0 0.0
2015-Jul-27 13:33N 37°57' E 023°38'0 0.0
2015-Jul-27 12:33N 37°57' E 023°38'0 0.0
2015-Jul-27 11:34N 37°57' E 023°38'0 0.0
2015-Jul-27 10:34N 37°57' E 023°38'0 0.0
2015-Jul-27 09:34N 37°57' E 023°38'0 0.0
2015-Jul-27 08:34N 37°57' E 023°38'0 0.0
2015-Jul-27 07:34N 37°57' E 023°38'0 0.0
2015-Jul-27 06:33N 37°57' E 023°38'0 0.0
2015-Jul-27 05:32N 37°57' E 023°38'0 0.0
2015-Jul-27 04:34N 37°57' E 023°38'0 0.0
2015-Jul-27 03:34N 37°57' E 023°38'9 8.7
2015-Jul-27 02:33N 37°48' E 023°41'1818.3
2015-Jul-27 01:33N 37°32' E 023°50'5518.3
2015-Jul-26 22:31N 36°44' E 024°25'5 5.0
2015-Jul-26 21:33N 36°47' E 024°30'2217.9
2015-Jul-26 20:21N 36°36' E 024°53'1518.3
2015-Jul-26 19:30N 36°28' E 025°09'1414.8
2015-Jul-26 18:33N 36°23' E 025°26'2 2.0
2015-Jul-26 17:33N 36°23' E 025°23'1312.7
2015-Jul-26 16:33N 36°20' E 025°38'8 8.4
2015-Jul-26 15:33N 36°16' E 025°48'1818.4
2015-Jul-26 14:33N 35°58' E 025°53'50 9.9
2015-Jul-26 09:33N 35°22' E 026°36'1616.2
2015-Jul-26 08:32N 35°26' E 026°55'9 8.7
2015-Jul-26 07:32N 35°24' E 027°06'12 5.3
2015-Jul-26 05:19N 35°34' E 027°14'2312.8
2015-Jul-26 03:33N 35°56' E 027°22'3014.9
2015-Jul-26 01:30N 36°18' E 027°47'8 1.2
2015-Jul-25 18:27N 36°22' E 027°56'3415.3
2015-Jul-25 16:14N 35°59' E 027°26'1318.7
2015-Jul-25 15:33N 35°49' E 027°16'24 7.6
2015-Jul-25 12:28N 35°26' E 027°13'1314.5
2015-Jul-25 11:33N 35°26' E 026°56'9 9.6
2015-Jul-25 10:33N 35°22' E 026°46'6310.5
2015-Jul-25 04:33N 36°06' E 025°50'1514.6
2015-Jul-25 03:33N 36°21' E 025°46'1515.1
2015-Jul-25 02:33N 36°19' E 025°28'5 4.8
2015-Jul-25 01:32N 36°23' E 025°26'6 5.7
2015-Jul-25 00:33N 36°22' E 025°19'10314.8
2015-Jul-24 17:33N 37°34' E 023°46'1717.4
2015-Jul-24 16:33N 37°50' E 023°37'7 7.0
2015-Jul-24 15:33N 37°57' E 023°38'0 0.0
2015-Jul-24 14:33N 37°57' E 023°38'0 0.0
2015-Jul-24 13:33N 37°57' E 023°38'2 1.9
2015-Jul-24 12:34N 37°55' E 023°37'1817.8
2015-Jul-24 11:34N 37°39' E 023°47'9018.0
2015-Jul-24 06:33N 36°34' E 025°05'1717.6
2015-Jul-24 05:33N 36°26' E 025°24'6 5.8
2015-Jul-24 04:33N 36°20' E 025°22'1717.4
2015-Jul-24 03:33N 36°20' E 025°43'1212.1
2015-Jul-24 02:33N 36°11' E 025°53'1818.1
2015-Jul-24 01:33N 35°59' E 026°10'1818.1
2015-Jul-24 00:33N 35°47' E 026°26'32 1.7
2015-Jul-23 05:32N 35°25' E 026°56'2913.4
2015-Jul-23 03:21N 35°45' E 026°29'1818.1
2015-Jul-23 02:21N 35°57' E 026°13'1418.1
2015-Jul-23 01:33N 36°06' E 025°59'1717.2
2015-Jul-23 00:33N 36°20' E 025°46'1211.9
2015-Jul-22 23:32N 36°19' E 025°31'6 6.1
2015-Jul-22 22:33N 36°23' E 025°26'8 7.9
2015-Jul-22 21:33N 36°29' E 025°19'1817.8
2015-Jul-22 20:33N 36°36' E 024°59'7717.6
2015-Jul-22 16:09N 37°33' E 023°53'1017.2
2015-Jul-22 15:34N 37°40' E 023°43'1716.6
2015-Jul-22 14:33N 37°55' E 023°37'2 1.7
2015-Jul-22 13:33N 37°57' E 023°38'0 0.0
2015-Jul-22 12:33N 37°57' E 023°38'0 0.0
2015-Jul-22 11:33N 37°57' E 023°38'0 0.0
2015-Jul-22 10:33N 37°57' E 023°38'0 0.0
2015-Jul-22 08:10N 37°57' E 023°38'1 1.1
2015-Jul-22 07:08N 37°56' E 023°37'3 5.6
2015-Jul-22 06:33N 37°58' E 023°33'0 0.0
2015-Jul-22 05:33N 37°58' E 023°33'0 0.0
2015-Jul-22 04:33N 37°58' E 023°33'0 0.0
2015-Jul-22 03:33N 37°58' E 023°33'0 0.0
2015-Jul-22 02:33N 37°58' E 023°33'0 0.0
2015-Jul-22 01:33N 37°58' E 023°33'0 0.0
2015-Jul-22 00:33N 37°58' E 023°33'0 0.0
2015-Jul-21 23:33N 37°58' E 023°33'0 0.0
2015-Jul-21 22:33N 37°58' E 023°33'0 0.0
2015-Jul-21 21:33N 37°58' E 023°33'0 0.0
2015-Jul-21 20:33N 37°58' E 023°33'0 0.0
2015-Jul-21 19:33N 37°58' E 023°33'0 0.0
2015-Jul-21 18:33N 37°58' E 023°33'0 0.0
2015-Jul-21 17:33N 37°58' E 023°33'0 0.0
2015-Jul-21 16:33N 37°58' E 023°33'0 0.0
2015-Jul-21 15:33N 37°58' E 023°33'0 0.0
2015-Jul-21 14:33N 37°58' E 023°33'0 0.0
2015-Jul-21 13:33N 37°58' E 023°33'0 0.0
2015-Jul-21 12:33N 37°58' E 023°33'0 0.0
2015-Jul-21 11:32N 37°58' E 023°33'0 0.0
2015-Jul-21 10:29N 37°58' E 023°33'0 0.0
2015-Jul-21 09:33N 37°58' E 023°33'0 0.0
2015-Jul-21 08:33N 37°58' E 023°33'0 0.0
2015-Jul-21 07:33N 37°58' E 023°33'0 0.0
2015-Jul-21 06:33N 37°58' E 023°33'0 0.0
2015-Jul-21 05:33N 37°58' E 023°33'0 0.0
2015-Jul-21 04:33N 37°58' E 023°33'0 0.0
2015-Jul-21 03:33N 37°58' E 023°33'0 0.0
2015-Jul-21 02:33N 37°58' E 023°33'0 0.0
2015-Jul-21 01:33N 37°58' E 023°33'0 0.0
2015-Jul-21 00:33N 37°58' E 023°33'0 0.0
2015-Jul-20 23:33N 37°58' E 023°33'0 0.0
2015-Jul-20 22:33N 37°58' E 023°33'0 0.0
2015-Jul-20 21:33N 37°58' E 023°33'0 0.0
2015-Jul-20 20:33N 37°58' E 023°33'0 0.0
2015-Jul-20 19:33N 37°58' E 023°33'0 0.0
2015-Jul-20 18:33N 37°58' E 023°33'0 0.0
2015-Jul-20 17:33N 37°58' E 023°33'0 0.0
2015-Jul-20 16:33N 37°58' E 023°33'0 0.0
2015-Jul-20 15:33N 37°58' E 023°33'0 0.0
2015-Jul-20 14:33N 37°58' E 023°33'0 0.0
2015-Jul-20 13:33N 37°58' E 023°33'0 0.0
2015-Jul-20 12:33N 37°58' E 023°33'0 0.0
2015-Jul-20 11:33N 37°58' E 023°33'0 0.0
2015-Jul-20 10:33N 37°58' E 023°33'0 0.0
2015-Jul-20 09:33N 37°58' E 023°33'0 0.0
2015-Jul-20 08:33N 37°58' E 023°33'0 0.0
2015-Jul-20 07:33N 37°58' E 023°33'0 0.0
2015-Jul-20 06:33N 37°58' E 023°33'0 0.0
2015-Jul-20 05:33N 37°58' E 023°33'0 0.0
2015-Jul-20 04:33N 37°58' E 023°33'0 0.0
2015-Jul-20 03:33N 37°58' E 023°33'0 0.0
2015-Jul-20 02:33N 37°58' E 023°33'0 0.0
2015-Jul-20 01:33N 37°58' E 023°33'0 0.0
2015-Jul-20 00:33N 37°58' E 023°33'0 0.0
2015-Jul-19 23:33N 37°58' E 023°33'0 0.0
2015-Jul-19 22:33N 37°58' E 023°33'0 0.0
2015-Jul-19 21:33N 37°58' E 023°33'0 0.0
2015-Jul-19 20:33N 37°58' E 023°33'0 0.0
2015-Jul-19 19:33N 37°58' E 023°33'0 0.0
2015-Jul-19 18:33N 37°58' E 023°33'0 0.0
2015-Jul-19 17:33N 37°58' E 023°33'0 0.0
2015-Jul-19 16:33N 37°58' E 023°33'0 0.0
2015-Jul-19 15:33N 37°58' E 023°33'0 0.0
2015-Jul-19 14:33N 37°58' E 023°33'0 0.0
2015-Jul-19 13:33N 37°58' E 023°33'0 0.0
2015-Jul-19 12:33N 37°58' E 023°33'0 0.0
2015-Jul-19 11:33N 37°58' E 023°33'0 0.0
2015-Jul-19 10:33N 37°58' E 023°33'0 0.0
2015-Jul-19 09:33N 37°58' E 023°33'0 0.0
2015-Jul-19 08:33N 37°58' E 023°33'0 0.0
2015-Jul-19 07:33N 37°58' E 023°33'0 0.0
2015-Jul-19 06:33N 37°58' E 023°33'0 0.0
2015-Jul-19 05:33N 37°58' E 023°33'0 0.0
2015-Jul-19 04:33N 37°58' E 023°33'0 0.0
2015-Jul-19 00:33N 37°58' E 023°33'0 0.0
2015-Jul-18 23:33N 37°58' E 023°33'0 0.0
2015-Jul-18 22:33N 37°58' E 023°33'0 0.0
2015-Jul-18 21:33N 37°58' E 023°33'  
Track history (hours):
 
Tides and Currents Weather Stations Pressure Air Temp Water Temp Dewpoint Dewpoint Depression Visibility Wind Speed Wind Dir Waves Ship Positions

Prevelis

Last reported at 2015-Jul-28 21:23 UTC. Time now 2015-Jul-28 21:45 UTC.
Position N 35°49' E 027°16'.

Length 143 m; draft 5.5 m.

Type: Passenger vessel. MMSI: 239297000.

Date/timePositionNaut miles runAvg speedWind from/ knotsBaromVisibWave heightAir tempDewpointWater temp
2015-Jul-28 21:23N 35°49' E 027°16'10 0.9
2015-Jul-28 10:33N 35°56' E 027°23'32 9.5
2015-Jul-28 07:10N 35°26' E 027°12'914.2
2015-Jul-28 06:31N 35°27' E 027°01'8 8.5
2015-Jul-28 05:33N 35°31' E 026°52'1818.5
2015-Jul-28 04:33N 35°42' E 026°34'3718.4
2015-Jul-28 02:33N 36°07' E 026°01'1717.2
2015-Jul-28 01:33N 36°20' E 025°46'1212.1
2015-Jul-28 00:33N 36°19' E 025°31'6 6.1
2015-Jul-27 23:32N 36°23' E 025°26'2 1.5
2015-Jul-27 22:33N 36°25' E 025°25'1817.6
2015-Jul-27 21:32N 36°33' E 025°06'1717.3
2015-Jul-27 20:32N 36°45' E 024°50'1918.0
2015-Jul-27 19:28N 36°58' E 024°31'1617.9
2015-Jul-27 18:33N 37°09' E 024°17'2217.8
2015-Jul-27 17:19N 37°27' E 024°00'1418.1
2015-Jul-27 16:33N 37°36' E 023°47'1717.2
2015-Jul-27 15:33N 37°51' E 023°37'6 5.8
2015-Jul-27 14:34N 37°57' E 023°38'0 0.0
2015-Jul-27 13:33N 37°57' E 023°38'0 0.0
2015-Jul-27 12:33N 37°57' E 023°38'0 0.0
2015-Jul-27 11:34N 37°57' E 023°38'0 0.0
2015-Jul-27 10:34N 37°57' E 023°38'0 0.0
2015-Jul-27 09:34N 37°57' E 023°38'0 0.0
2015-Jul-27 08:34N 37°57' E 023°38'0 0.0
2015-Jul-27 07:34N 37°57' E 023°38'0 0.0
2015-Jul-27 06:33N 37°57' E 023°38'0 0.0
2015-Jul-27 05:32N 37°57' E 023°38'0 0.0
2015-Jul-27 04:34N 37°57' E 023°38'0 0.0
2015-Jul-27 03:34N 37°57' E 023°38'9 8.7
2015-Jul-27 02:33N 37°48' E 023°41'1818.3
2015-Jul-27 01:33N 37°32' E 023°50'5518.3
2015-Jul-26 22:31N 36°44' E 024°25'5 5.0
2015-Jul-26 21:33N 36°47' E 024°30'2217.9
2015-Jul-26 20:21N 36°36' E 024°53'1518.3
2015-Jul-26 19:30N 36°28' E 025°09'1414.8
2015-Jul-26 18:33N 36°23' E 025°26'2 2.0
2015-Jul-26 17:33N 36°23' E 025°23'1312.7
2015-Jul-26 16:33N 36°20' E 025°38'8 8.4
2015-Jul-26 15:33N 36°16' E 025°48'1818.4
2015-Jul-26 14:33N 35°58' E 025°53'50 9.9
2015-Jul-26 09:33N 35°22' E 026°36'1616.2
2015-Jul-26 08:32N 35°26' E 026°55'9 8.7
2015-Jul-26 07:32N 35°24' E 027°06'12 5.3
2015-Jul-26 05:19N 35°34' E 027°14'2312.8
2015-Jul-26 03:33N 35°56' E 027°22'3014.9
2015-Jul-26 01:30N 36°18' E 027°47'8 1.2
2015-Jul-25 18:27N 36°22' E 027°56'3415.3
2015-Jul-25 16:14N 35°59' E 027°26'1318.7
2015-Jul-25 15:33N 35°49' E 027°16'24 7.6
2015-Jul-25 12:28N 35°26' E 027°13'1314.5
2015-Jul-25 11:33N 35°26' E 026°56'9 9.6
2015-Jul-25 10:33N 35°22' E 026°46'6310.5
2015-Jul-25 04:33N 36°06' E 025°50'1514.6
2015-Jul-25 03:33N 36°21' E 025°46'1515.1
2015-Jul-25 02:33N 36°19' E 025°28'5 4.8
2015-Jul-25 01:32N 36°23' E 025°26'6 5.7
2015-Jul-25 00:33N 36°22' E 025°19'10314.8
2015-Jul-24 17:33N 37°34' E 023°46'1717.4
2015-Jul-24 16:33N 37°50' E 023°37'7 7.0
2015-Jul-24 15:33N 37°57' E 023°38'0 0.0
2015-Jul-24 14:33N 37°57' E 023°38'0 0.0
2015-Jul-24 13:33N 37°57' E 023°38'2 1.9
2015-Jul-24 12:34N 37°55' E 023°37'1817.8
2015-Jul-24 11:34N 37°39' E 023°47'9018.0
2015-Jul-24 06:33N 36°34' E 025°05'1717.6
2015-Jul-24 05:33N 36°26' E 025°24'6 5.8
2015-Jul-24 04:33N 36°20' E 025°22'1717.4
2015-Jul-24 03:33N 36°20' E 025°43'1212.1
2015-Jul-24 02:33N 36°11' E 025°53'1818.1
2015-Jul-24 01:33N 35°59' E 026°10'1818.1
2015-Jul-24 00:33N 35°47' E 026°26'32 1.7
2015-Jul-23 05:32N 35°25' E 026°56'2913.4
2015-Jul-23 03:21N 35°45' E 026°29'1818.1
2015-Jul-23 02:21N 35°57' E 026°13'1418.1
2015-Jul-23 01:33N 36°06' E 025°59'1717.2
2015-Jul-23 00:33N 36°20' E 025°46'1211.9
2015-Jul-22 23:32N 36°19' E 025°31'6 6.1
2015-Jul-22 22:33N 36°23' E 025°26'8 7.9
2015-Jul-22 21:33N 36°29' E 025°19'1817.8
2015-Jul-22 20:33N 36°36' E 024°59'7717.6
2015-Jul-22 16:09N 37°33' E 023°53'1017.2
2015-Jul-22 15:34N 37°40' E 023°43'1716.6
2015-Jul-22 14:33N 37°55' E 023°37'2 1.7
2015-Jul-22 13:33N 37°57' E 023°38'0 0.0
2015-Jul-22 12:33N 37°57' E 023°38'0 0.0
2015-Jul-22 11:33N 37°57' E 023°38'0 0.0
2015-Jul-22 10:33N 37°57' E 023°38'0 0.0
2015-Jul-22 08:10N 37°57' E 023°38'1 1.1
2015-Jul-22 07:08N 37°56' E 023°37'3 5.6
2015-Jul-22 06:33N 37°58' E 023°33'0 0.0
2015-Jul-22 05:33N 37°58' E 023°33'0 0.0
2015-Jul-22 04:33N 37°58' E 023°33'0 0.0
2015-Jul-22 03:33N 37°58' E 023°33'0 0.0
2015-Jul-22 02:33N 37°58' E 023°33'0 0.0
2015-Jul-22 01:33N 37°58' E 023°33'0 0.0
2015-Jul-22 00:33N 37°58' E 023°33'0 0.0
2015-Jul-21 23:33N 37°58' E 023°33'0 0.0
2015-Jul-21 22:33N 37°58' E 023°33'0 0.0
2015-Jul-21 21:33N 37°58' E 023°33'0 0.0
2015-Jul-21 20:33N 37°58' E 023°33'0 0.0
2015-Jul-21 19:33N 37°58' E 023°33'0 0.0
2015-Jul-21 18:33N 37°58' E 023°33'0 0.0
2015-Jul-21 17:33N 37°58' E 023°33'0 0.0
2015-Jul-21 16:33N 37°58' E 023°33'0 0.0
2015-Jul-21 15:33N 37°58' E 023°33'0 0.0
2015-Jul-21 14:33N 37°58' E 023°33'0 0.0
2015-Jul-21 13:33N 37°58' E 023°33'0 0.0
2015-Jul-21 12:33N 37°58' E 023°33'0 0.0
2015-Jul-21 11:32N 37°58' E 023°33'0 0.0
2015-Jul-21 10:29N 37°58' E 023°33'0 0.0
2015-Jul-21 09:33N 37°58' E 023°33'0 0.0
2015-Jul-21 08:33N 37°58' E 023°33'0 0.0
2015-Jul-21 07:33N 37°58' E 023°33'0 0.0
2015-Jul-21 06:33N 37°58' E 023°33'0 0.0
2015-Jul-21 05:33N 37°58' E 023°33'0 0.0
2015-Jul-21 04:33N 37°58' E 023°33'0 0.0
2015-Jul-21 03:33N 37°58' E 023°33'0 0.0
2015-Jul-21 02:33N 37°58' E 023°33'0 0.0
2015-Jul-21 01:33N 37°58' E 023°33'0 0.0
2015-Jul-21 00:33N 37°58' E 023°33'0 0.0
2015-Jul-20 23:33N 37°58' E 023°33'0 0.0
2015-Jul-20 22:33N 37°58' E 023°33'0 0.0
2015-Jul-20 21:33N 37°58' E 023°33'0 0.0
2015-Jul-20 20:33N 37°58' E 023°33'0 0.0
2015-Jul-20 19:33N 37°58' E 023°33'0 0.0
2015-Jul-20 18:33N 37°58' E 023°33'0 0.0
2015-Jul-20 17:33N 37°58' E 023°33'0 0.0
2015-Jul-20 16:33N 37°58' E 023°33'0 0.0
2015-Jul-20 15:33N 37°58' E 023°33'0 0.0
2015-Jul-20 14:33N 37°58' E 023°33'0 0.0
2015-Jul-20 13:33N 37°58' E 023°33'0 0.0
2015-Jul-20 12:33N 37°58' E 023°33'0 0.0
2015-Jul-20 11:33N 37°58' E 023°33'0 0.0
2015-Jul-20 10:33N 37°58' E 023°33'0 0.0
2015-Jul-20 09:33N 37°58' E 023°33'0 0.0
2015-Jul-20 08:33N 37°58' E 023°33'0 0.0
2015-Jul-20 07:33N 37°58' E 023°33'0 0.0
2015-Jul-20 06:33N 37°58' E 023°33'0 0.0
2015-Jul-20 05:33N 37°58' E 023°33'0 0.0
2015-Jul-20 04:33N 37°58' E 023°33'0 0.0
2015-Jul-20 03:33N 37°58' E 023°33'0 0.0
2015-Jul-20 02:33N 37°58' E 023°33'0 0.0
2015-Jul-20 01:33N 37°58' E 023°33'0 0.0
2015-Jul-20 00:33N 37°58' E 023°33'0 0.0
2015-Jul-19 23:33N 37°58' E 023°33'0 0.0
2015-Jul-19 22:33N 37°58' E 023°33'0 0.0
2015-Jul-19 21:33N 37°58' E 023°33'0 0.0
2015-Jul-19 20:33N 37°58' E 023°33'0 0.0
2015-Jul-19 19:33N 37°58' E 023°33'0 0.0
2015-Jul-19 18:33N 37°58' E 023°33'0 0.0
2015-Jul-19 17:33N 37°58' E 023°33'0 0.0
2015-Jul-19 16:33N 37°58' E 023°33'0 0.0
2015-Jul-19 15:33N 37°58' E 023°33'0 0.0
2015-Jul-19 14:33N 37°58' E 023°33'0 0.0
2015-Jul-19 13:33N 37°58' E 023°33'0 0.0
2015-Jul-19 12:33N 37°58' E 023°33'0 0.0
2015-Jul-19 11:33N 37°58' E 023°33'0 0.0
2015-Jul-19 10:33N 37°58' E 023°33'0 0.0
2015-Jul-19 09:33N 37°58' E 023°33'0 0.0
2015-Jul-19 08:33N 37°58' E 023°33'0 0.0
2015-Jul-19 07:33N 37°58' E 023°33'0 0.0
2015-Jul-19 06:33N 37°58' E 023°33'0 0.0
2015-Jul-19 05:33N 37°58' E 023°33'0 0.0
2015-Jul-19 04:33N 37°58' E 023°33'0 0.0
2015-Jul-19 00:33N 37°58' E 023°33'0 0.0
2015-Jul-18 23:33N 37°58' E 023°33'0 0.0
2015-Jul-18 22:33N 37°58' E 023°33'0 0.0
2015-Jul-18 21:33N 37°58' E 023°33'  

Dump ship's entire track history